Etusivu
METAR-TAF:

METAR-TAF

Lentoasemat :

Røros, Norja

Leveyspiiri: 62-35N, Pituuspiiri: 011-21E, korkeus merenpinnasta: 626 m

Tämänhetkinen sää

Tämä raportti tehtiin 24 minuuttia sitten, kello 23.50 UTC
Tuuli 4 kn lännestä/lounaasta
Lämpötila 4°C
Kosteus 93%
Ilmanpaine 1011 hPa
Näkyvyys 10 km tai enemmän

METAR: ENRO 282350Z AUTO 24004KT 9999NDV BKN100/// 04/03 Q1011

Aika: 02:14 (00:14 UTC)

Sääennuste

Tämä raportti tehtiin 13 tuntia ja 14 minuuttia sitten, kello 11.00 UTC
Ennuste voimassa 28. päivästä klo 12 UTC - 28. päivään klo 18 UTC
Tuuli 5 kn eri suunnista
Näkyvyys 10 km tai enemmän
Muutamia pilviä 4500 ft:n korkeudessa

TAF: ENRO 281100Z 2812/2818 VRB05KT 9999 FEW045

Säähavainnot ja -ennusteet yli 4000 lentoasemalta (METAR- ja TAF-raportit).

Käytössä olevat sääasemat on merkitty karttaan keltaisilla ja punaisilla pisteillä.

Aseta hiiri pisteen päälle nähdäksesi sääaseman nimen.

Klikkaa sitten nähdäksesi säähavainnot ja -ennusteet.

Kartan vaihtaminen: klikkaa mustalla rastilla varustettuja vihreitä pisteitä, niin voit zoomata sisään; viivalla varustettua vihreää pistettä, niin voit zoomata ulos tai vihreitä nuolia, niin pääset viereisille kartoille.


METAR-TAF: